Skokie, IL (60076)

12:01 PM CST en Noviembre 28, 2014 (GMT -0600)
Skokie | Change Station
CLOSE
Current Station
Estación meteorológica personal
Location: Skokie, IL
Altura: 627 ft
Estaciones meteorológicas cercanas

Alt 627 ft 42.03 °N, 87.73 °W | Updated 14 minutes ago

Muy nublado
Muy nublado
28.4 ° F
Sensación térmica 23 ° F
N
5.3
Viento Variable Viento desde Sur

Hoy
Alta -- | Baja -- ° F
--% Posibilidad de precipitaciones
Ayer
Alta -- | Baja -- ° F
Precip. -- pul
6:56 AM 4:21 PM
Creciente, 42% visible
Presión 30.13 pul
Visibilidad 10.0 Millas
Nubes Nublado 12000 ft
Vientos helados 23 ° F
Punto de rocío 18 ° F
Humedad 65%
Precipitaciones 0.00 pul
Espesor de la nieve No disponible.
UV 1 de una escala de 12
Polen .10 de una escala de 12
Calidad del aire No disponible.
Flu Activity No disponible.
METAR KORD 281751Z 15014KT 10SM OVC120 M03/M09 A3010 RMK AO2 PRESFR SLP202 60000 T10281089 11028 21067 58048

More Conditions Fewer Conditions

Presión 30.13 pul
Visibilidad 10.0 Millas
Nubes Nublado 12000 ft
Vientos helados 23 ° F
Punto de rocío 18 ° F
Humedad 65%
Precipitaciones 0.00 pul
Espesor de la nieve No disponible.
UV 1 de una escala de 12
Polen .10 de una escala de 12
Calidad del aire No disponible.
Flu Activity No disponible.
METAR KORD 281751Z 15014KT 10SM OVC120 M03/M09 A3010 RMK AO2 PRESFR SLP202 60000 T10281089 11028 21067 58048

More Conditions Fewer Conditions

10-Day Weather Forecast

Almanac

Astronomía

Nov. 28, 2014 Salida Puesta
Hora real
Crepúsculo civil
Crepúsculo náutico
Crepúsculo astronómico
Luna
Horas de luz
Horas de luz
Tomorrow will be .
, % of the Moon is Illuminated

Extremos de hoy

Máximos del estado Bajos del estado

Community

WunderPhotos

Upload Photos

1,774,246 ¡fotos cargadas!

WunderBlogs® & News

Nearby

Calidad del aire

  Calidad del aire Índice AQ Contaminante
Not available.

Grosos de nieve

Estación Profundido Altura

Actividad de terremotos

Ciudad Distance Mag. Tiempo y dato
Magnitud mínima muestra es 2,5.

Temperaturas de aguas costeras

Lugar Temperatura

Estaciones meteorológicas cercanas